sensor_id;sensor_type;location;lat;lon;timestamp;P1;durP1;ratioP1;P2;durP2;ratioP2
51523;SDS011;37610;51.790;21.590;2023-08-08T00:00:51;4.00;;;2.00;;
51523;SDS011;37610;51.790;21.590;2023-08-08T00:05:08;3.80;;;2.10;;
51523;SDS011;37610;51.790;21.590;2023-08-08T00:09:10;5.80;;;2.30;;
51523;SDS011;37610;51.790;21.590;2023-08-08T00:13:11;5.00;;;2.00;;
51523;SDS011;37610;51.790;21.590;2023-08-08T00:17:13;3.70;;;1.90;;
51523;SDS011;37610;51.790;21.590;2023-08-08T00:21:14;5.60;;;2.60;;
51523;SDS011;37610;51.790;21.590;2023-08-08T00:25:16;4.30;;;1.80;;
51523;SDS011;37610;51.790;21.590;2023-08-08T00:29:18;6.40;;;2.10;;
51523;SDS011;37610;51.790;21.590;2023-08-08T00:33:19;3.30;;;1.70;;
51523;SDS011;37610;51.790;21.590;2023-08-08T00:37:21;3.60;;;1.90;;
51523;SDS011;37610;51.790;21.590;2023-08-08T00:41:22;5.50;;;2.40;;
51523;SDS011;37610;51.790;21.590;2023-08-08T00:45:24;4.10;;;2.00;;
51523;SDS011;37610;51.790;21.590;2023-08-08T00:49:25;4.40;;;1.90;;
51523;SDS011;37610;51.790;21.590;2023-08-08T00:53:27;3.30;;;1.70;;
51523;SDS011;37610;51.790;21.590;2023-08-08T00:57:32;3.20;;;1.90;;
51523;SDS011;37610;51.790;21.590;2023-08-08T01:01:35;3.20;;;1.70;;
51523;SDS011;37610;51.790;21.590;2023-08-08T01:05:44;7.80;;;2.50;;
51523;SDS011;37610;51.790;21.590;2023-08-08T01:09:57;4.30;;;2.00;;
51523;SDS011;37610;51.790;21.590;2023-08-08T01:14:08;5.30;;;2.00;;
51523;SDS011;37610;51.790;21.590;2023-08-08T01:18:10;6.90;;;2.10;;
51523;SDS011;37610;51.790;21.590;2023-08-08T01:22:14;5.60;;;2.20;;
51523;SDS011;37610;51.790;21.590;2023-08-08T01:26:24;4.00;;;1.70;;
51523;SDS011;37610;51.790;21.590;2023-08-08T01:30:27;2.60;;;1.70;;
51523;SDS011;37610;51.790;21.590;2023-08-08T01:34:29;3.50;;;1.70;;
51523;SDS011;37610;51.790;21.590;2023-08-08T01:38:36;5.80;;;1.80;;
51523;SDS011;37610;51.790;21.590;2023-08-08T01:42:42;3.50;;;1.60;;
51523;SDS011;37610;51.790;21.590;2023-08-08T01:46:46;3.20;;;1.90;;
51523;SDS011;37610;51.790;21.590;2023-08-08T01:50:48;3.60;;;1.40;;
51523;SDS011;37610;51.790;21.590;2023-08-08T01:54:50;4.80;;;1.60;;
51523;SDS011;37610;51.790;21.590;2023-08-08T01:58:51;6.70;;;1.40;;
51523;SDS011;37610;51.790;21.590;2023-08-08T02:02:53;3.20;;;1.30;;
51523;SDS011;37610;51.790;21.590;2023-08-08T02:06:55;3.20;;;1.70;;
51523;SDS011;37610;51.790;21.590;2023-08-08T02:10:56;5.60;;;1.60;;
51523;SDS011;37610;51.790;21.590;2023-08-08T02:14:58;4.80;;;1.90;;
51523;SDS011;37610;51.790;21.590;2023-08-08T02:19:00;4.20;;;1.40;;
51523;SDS011;37610;51.790;21.590;2023-08-08T02:23:02;6.60;;;1.60;;
51523;SDS011;37610;51.790;21.590;2023-08-08T02:27:04;5.10;;;1.70;;
51523;SDS011;37610;51.790;21.590;2023-08-08T02:31:06;4.10;;;1.40;;
51523;SDS011;37610;51.790;21.590;2023-08-08T02:35:08;5.70;;;1.50;;
51523;SDS011;37610;51.790;21.590;2023-08-08T02:39:10;5.00;;;1.40;;
51523;SDS011;37610;51.790;21.590;2023-08-08T02:43:11;6.50;;;1.50;;
51523;SDS011;37610;51.790;21.590;2023-08-08T02:47:13;6.10;;;1.60;;
51523;SDS011;37610;51.790;21.590;2023-08-08T02:51:15;7.10;;;1.90;;
51523;SDS011;37610;51.790;21.590;2023-08-08T02:55:17;3.50;;;1.60;;
51523;SDS011;37610;51.790;21.590;2023-08-08T02:59:18;4.30;;;1.50;;
51523;SDS011;37610;51.790;21.590;2023-08-08T03:03:20;6.60;;;1.40;;
51523;SDS011;37610;51.790;21.590;2023-08-08T03:07:21;8.80;;;1.90;;
51523;SDS011;37610;51.790;21.590;2023-08-08T03:11:23;6.40;;;1.90;;
51523;SDS011;37610;51.790;21.590;2023-08-08T03:15:25;9.50;;;2.10;;
51523;SDS011;37610;51.790;21.590;2023-08-08T03:19:26;2.70;;;1.60;;
51523;SDS011;37610;51.790;21.590;2023-08-08T03:23:28;4.00;;;1.90;;
51523;SDS011;37610;51.790;21.590;2023-08-08T03:27:30;7.20;;;1.70;;
51523;SDS011;37610;51.790;21.590;2023-08-08T03:31:32;7.00;;;1.90;;
51523;SDS011;37610;51.790;21.590;2023-08-08T03:35:33;4.70;;;1.80;;
51523;SDS011;37610;51.790;21.590;2023-08-08T03:39:35;6.10;;;1.70;;
51523;SDS011;37610;51.790;21.590;2023-08-08T03:43:37;4.30;;;1.80;;
51523;SDS011;37610;51.790;21.590;2023-08-08T03:47:39;5.80;;;1.30;;
51523;SDS011;37610;51.790;21.590;2023-08-08T03:51:41;5.30;;;1.40;;
51523;SDS011;37610;51.790;21.590;2023-08-08T03:55:42;5.30;;;1.80;;
51523;SDS011;37610;51.790;21.590;2023-08-08T03:59:44;5.00;;;1.60;;
51523;SDS011;37610;51.790;21.590;2023-08-08T04:03:45;3.10;;;1.20;;
51523;SDS011;37610;51.790;21.590;2023-08-08T04:07:47;7.90;;;1.90;;
51523;SDS011;37610;51.790;21.590;2023-08-08T04:11:49;5.00;;;2.00;;
51523;SDS011;37610;51.790;21.590;2023-08-08T04:15:50;4.50;;;1.60;;
51523;SDS011;37610;51.790;21.590;2023-08-08T04:19:53;7.40;;;2.00;;
51523;SDS011;37610;51.790;21.590;2023-08-08T04:23:54;4.40;;;1.70;;
51523;SDS011;37610;51.790;21.590;2023-08-08T04:27:56;5.10;;;1.80;;
51523;SDS011;37610;51.790;21.590;2023-08-08T04:31:58;5.10;;;1.40;;
51523;SDS011;37610;51.790;21.590;2023-08-08T04:35:59;5.10;;;1.50;;
51523;SDS011;37610;51.790;21.590;2023-08-08T04:40:01;4.60;;;1.70;;
51523;SDS011;37610;51.790;21.590;2023-08-08T04:44:03;8.70;;;1.80;;
51523;SDS011;37610;51.790;21.590;2023-08-08T04:48:04;6.80;;;1.70;;
51523;SDS011;37610;51.790;21.590;2023-08-08T04:52:06;5.90;;;1.90;;
51523;SDS011;37610;51.790;21.590;2023-08-08T04:56:08;8.80;;;1.70;;
51523;SDS011;37610;51.790;21.590;2023-08-08T05:00:10;7.60;;;1.60;;
51523;SDS011;37610;51.790;21.590;2023-08-08T05:08:14;6.50;;;1.60;;
51523;SDS011;37610;51.790;21.590;2023-08-08T05:12:16;4.90;;;1.60;;
51523;SDS011;37610;51.790;21.590;2023-08-08T05:16:18;5.00;;;1.50;;
51523;SDS011;37610;51.790;21.590;2023-08-08T05:20:19;5.80;;;1.60;;
51523;SDS011;37610;51.790;21.590;2023-08-08T05:24:22;5.90;;;1.60;;
51523;SDS011;37610;51.790;21.590;2023-08-08T05:28:24;5.70;;;1.90;;
51523;SDS011;37610;51.790;21.590;2023-08-08T05:32:25;10.70;;;2.00;;
51523;SDS011;37610;51.790;21.590;2023-08-08T05:36:27;6.00;;;1.60;;
51523;SDS011;37610;51.790;21.590;2023-08-08T05:40:28;6.60;;;1.80;;
51523;SDS011;37610;51.790;21.590;2023-08-08T05:44:30;7.20;;;2.20;;
51523;SDS011;37610;51.790;21.590;2023-08-08T05:48:31;7.20;;;2.20;;
51523;SDS011;37610;51.790;21.590;2023-08-08T05:52:33;10.50;;;2.20;;
51523;SDS011;37610;51.790;21.590;2023-08-08T05:56:35;9.10;;;2.50;;
51523;SDS011;37610;51.790;21.590;2023-08-08T06:00:38;7.70;;;1.90;;
51523;SDS011;37610;51.790;21.590;2023-08-08T06:04:42;6.10;;;2.20;;
51523;SDS011;37610;51.790;21.590;2023-08-08T06:08:44;15.00;;;2.50;;
51523;SDS011;37610;51.790;21.590;2023-08-08T06:12:46;5.10;;;2.00;;
51523;SDS011;37610;51.790;21.590;2023-08-08T06:16:47;4.30;;;1.80;;
51523;SDS011;37610;51.790;21.590;2023-08-08T06:20:49;6.00;;;2.10;;
51523;SDS011;37610;51.790;21.590;2023-08-08T06:24:50;5.30;;;1.60;;
51523;SDS011;37610;51.790;21.590;2023-08-08T06:28:53;6.80;;;2.20;;
51523;SDS011;37610;51.790;21.590;2023-08-08T06:32:54;6.00;;;1.90;;
51523;SDS011;37610;51.790;21.590;2023-08-08T06:36:56;5.90;;;1.80;;
51523;SDS011;37610;51.790;21.590;2023-08-08T06:40:58;7.20;;;1.90;;
51523;SDS011;37610;51.790;21.590;2023-08-08T06:45:00;5.30;;;1.90;;
51523;SDS011;37610;51.790;21.590;2023-08-08T06:49:01;5.10;;;1.90;;
51523;SDS011;37610;51.790;21.590;2023-08-08T06:53:03;8.30;;;2.00;;
51523;SDS011;37610;51.790;21.590;2023-08-08T06:57:05;7.20;;;2.10;;
51523;SDS011;37610;51.790;21.590;2023-08-08T07:01:07;6.60;;;1.80;;
51523;SDS011;37610;51.790;21.590;2023-08-08T07:05:08;5.80;;;1.80;;
51523;SDS011;37610;51.790;21.590;2023-08-08T07:09:11;7.90;;;2.30;;
51523;SDS011;37610;51.790;21.590;2023-08-08T07:13:12;2.80;;;1.30;;
51523;SDS011;37610;51.790;21.590;2023-08-08T07:17:16;11.50;;;1.90;;
51523;SDS011;37610;51.790;21.590;2023-08-08T07:21:18;9.90;;;2.40;;
51523;SDS011;37610;51.790;21.590;2023-08-08T07:25:19;5.30;;;1.90;;
51523;SDS011;37610;51.790;21.590;2023-08-08T07:29:21;4.90;;;2.00;;
51523;SDS011;37610;51.790;21.590;2023-08-08T07:33:23;6.10;;;1.70;;
51523;SDS011;37610;51.790;21.590;2023-08-08T07:37:25;5.90;;;1.80;;
51523;SDS011;37610;51.790;21.590;2023-08-08T07:41:26;5.60;;;1.80;;
51523;SDS011;37610;51.790;21.590;2023-08-08T07:45:32;4.80;;;1.70;;
51523;SDS011;37610;51.790;21.590;2023-08-08T07:49:33;5.20;;;1.60;;
51523;SDS011;37610;51.790;21.590;2023-08-08T07:53:35;5.30;;;2.40;;
51523;SDS011;37610;51.790;21.590;2023-08-08T07:57:36;4.00;;;1.60;;
51523;SDS011;37610;51.790;21.590;2023-08-08T08:01:38;4.20;;;1.60;;
51523;SDS011;37610;51.790;21.590;2023-08-08T08:05:39;4.00;;;1.60;;
51523;SDS011;37610;51.790;21.590;2023-08-08T08:09:41;5.90;;;2.10;;
51523;SDS011;37610;51.790;21.590;2023-08-08T08:13:43;3.20;;;2.00;;
51523;SDS011;37610;51.790;21.590;2023-08-08T08:17:45;6.40;;;1.80;;
51523;SDS011;37610;51.790;21.590;2023-08-08T08:21:47;4.80;;;2.20;;
51523;SDS011;37610;51.790;21.590;2023-08-08T08:25:48;8.90;;;2.10;;
51523;SDS011;37610;51.790;21.590;2023-08-08T08:29:51;5.50;;;1.90;;
51523;SDS011;37610;51.790;21.590;2023-08-08T08:33:53;4.90;;;2.00;;
51523;SDS011;37610;51.790;21.590;2023-08-08T08:37:56;5.50;;;1.90;;
51523;SDS011;37610;51.790;21.590;2023-08-08T08:41:59;5.10;;;2.40;;
51523;SDS011;37610;51.790;21.590;2023-08-08T08:46:06;10.00;;;1.80;;
51523;SDS011;37610;51.790;21.590;2023-08-08T08:50:13;3.50;;;1.80;;
51523;SDS011;37610;51.790;21.590;2023-08-08T08:54:16;5.50;;;1.60;;
51523;SDS011;37610;51.790;21.590;2023-08-08T08:58:18;6.10;;;1.70;;
51523;SDS011;37610;51.790;21.590;2023-08-08T09:02:21;7.10;;;2.10;;
51523;SDS011;37610;51.790;21.590;2023-08-08T09:06:25;4.40;;;2.00;;
51523;SDS011;37610;51.790;21.590;2023-08-08T09:10:30;10.80;;;1.80;;
51523;SDS011;37610;51.790;21.590;2023-08-08T09:14:33;3.60;;;1.60;;
51523;SDS011;37610;51.790;21.590;2023-08-08T09:18:35;8.30;;;2.50;;
51523;SDS011;37610;51.790;21.590;2023-08-08T09:22:39;5.20;;;1.90;;
51523;SDS011;37610;51.790;21.590;2023-08-08T09:26:41;5.20;;;1.90;;
51523;SDS011;37610;51.790;21.590;2023-08-08T09:30:43;6.00;;;2.30;;
51523;SDS011;37610;51.790;21.590;2023-08-08T09:34:45;3.60;;;1.90;;
51523;SDS011;37610;51.790;21.590;2023-08-08T09:38:47;5.20;;;2.30;;
51523;SDS011;37610;51.790;21.590;2023-08-08T09:42:50;6.60;;;1.60;;
51523;SDS011;37610;51.790;21.590;2023-08-08T09:46:53;3.80;;;1.50;;
51523;SDS011;37610;51.790;21.590;2023-08-08T09:50:55;5.10;;;1.90;;
51523;SDS011;37610;51.790;21.590;2023-08-08T09:55:01;7.20;;;2.60;;
51523;SDS011;37610;51.790;21.590;2023-08-08T09:59:04;4.70;;;1.60;;
51523;SDS011;37610;51.790;21.590;2023-08-08T10:03:07;7.30;;;1.20;;
51523;SDS011;37610;51.790;21.590;2023-08-08T10:07:09;7.50;;;1.80;;
51523;SDS011;37610;51.790;21.590;2023-08-08T10:11:10;4.20;;;1.30;;
51523;SDS011;37610;51.790;21.590;2023-08-08T10:15:13;10.50;;;1.80;;
51523;SDS011;37610;51.790;21.590;2023-08-08T10:19:21;2.90;;;1.30;;
51523;SDS011;37610;51.790;21.590;2023-08-08T10:23:24;3.00;;;1.50;;
51523;SDS011;37610;51.790;21.590;2023-08-08T10:27:36;4.60;;;2.70;;
51523;SDS011;37610;51.790;21.590;2023-08-08T10:35:49;7.60;;;4.10;;
51523;SDS011;37610;51.790;21.590;2023-08-08T10:39:57;4.90;;;4.50;;
51523;SDS011;37610;51.790;21.590;2023-08-08T10:44:01;4.20;;;2.60;;
51523;SDS011;37610;51.790;21.590;2023-08-08T10:48:09;4.30;;;3.90;;
51523;SDS011;37610;51.790;21.590;2023-08-08T10:52:13;3.40;;;2.30;;
51523;SDS011;37610;51.790;21.590;2023-08-08T10:56:15;5.70;;;2.10;;
51523;SDS011;37610;51.790;21.590;2023-08-08T11:00:20;3.40;;;3.00;;
51523;SDS011;37610;51.790;21.590;2023-08-08T11:04:34;4.90;;;1.90;;
51523;SDS011;37610;51.790;21.590;2023-08-08T11:08:37;4.10;;;3.00;;
51523;SDS011;37610;51.790;21.590;2023-08-08T11:12:39;3.10;;;2.30;;
51523;SDS011;37610;51.790;21.590;2023-08-08T11:16:41;4.50;;;4.10;;
51523;SDS011;37610;51.790;21.590;2023-08-08T11:20:44;3.10;;;2.70;;
51523;SDS011;37610;51.790;21.590;2023-08-08T11:24:46;2.90;;;2.20;;
51523;SDS011;37610;51.790;21.590;2023-08-08T11:28:51;4.70;;;3.10;;
51523;SDS011;37610;51.790;21.590;2023-08-08T11:32:53;3.20;;;2.20;;
51523;SDS011;37610;51.790;21.590;2023-08-08T11:36:55;6.90;;;5.00;;
51523;SDS011;37610;51.790;21.590;2023-08-08T11:40:59;5.10;;;2.60;;
51523;SDS011;37610;51.790;21.590;2023-08-08T11:45:01;4.50;;;3.90;;
51523;SDS011;37610;51.790;21.590;2023-08-08T11:49:06;18.30;;;3.70;;
51523;SDS011;37610;51.790;21.590;2023-08-08T11:53:07;4.60;;;1.90;;
51523;SDS011;37610;51.790;21.590;2023-08-08T11:57:09;17.40;;;3.00;;
51523;SDS011;37610;51.790;21.590;2023-08-08T12:01:11;4.20;;;3.00;;
51523;SDS011;37610;51.790;21.590;2023-08-08T12:05:15;4.50;;;4.10;;
51523;SDS011;37610;51.790;21.590;2023-08-08T12:09:22;5.10;;;4.00;;
51523;SDS011;37610;51.790;21.590;2023-08-08T12:13:24;10.90;;;3.90;;
51523;SDS011;37610;51.790;21.590;2023-08-08T12:17:30;5.20;;;4.20;;
51523;SDS011;37610;51.790;21.590;2023-08-08T12:21:32;13.30;;;6.00;;
51523;SDS011;37610;51.790;21.590;2023-08-08T12:25:34;6.70;;;3.80;;
51523;SDS011;37610;51.790;21.590;2023-08-08T12:29:36;4.50;;;4.10;;
51523;SDS011;37610;51.790;21.590;2023-08-08T12:33:37;7.30;;;4.80;;
51523;SDS011;37610;51.790;21.590;2023-08-08T12:37:39;8.00;;;4.20;;
51523;SDS011;37610;51.790;21.590;2023-08-08T12:41:40;19.50;;;4.40;;
51523;SDS011;37610;51.790;21.590;2023-08-08T12:45:42;66.50;;;6.50;;
51523;SDS011;37610;51.790;21.590;2023-08-08T12:49:45;7.10;;;2.50;;
51523;SDS011;37610;51.790;21.590;2023-08-08T12:53:46;4.30;;;3.90;;
51523;SDS011;37610;51.790;21.590;2023-08-08T12:57:48;4.00;;;2.00;;
51523;SDS011;37610;51.790;21.590;2023-08-08T13:01:49;5.10;;;2.60;;
51523;SDS011;37610;51.790;21.590;2023-08-08T13:05:51;4.20;;;2.40;;
51523;SDS011;37610;51.790;21.590;2023-08-08T13:09:53;2.90;;;2.00;;
51523;SDS011;37610;51.790;21.590;2023-08-08T13:13:54;10.90;;;2.60;;
51523;SDS011;37610;51.790;21.590;2023-08-08T13:17:56;2.70;;;2.10;;
51523;SDS011;37610;51.790;21.590;2023-08-08T13:21:58;5.70;;;3.20;;
51523;SDS011;37610;51.790;21.590;2023-08-08T13:26:00;12.70;;;4.20;;
51523;SDS011;37610;51.790;21.590;2023-08-08T13:30:03;233.30;;;11.90;;
51523;SDS011;37610;51.790;21.590;2023-08-08T13:34:06;4.90;;;3.70;;
51523;SDS011;37610;51.790;21.590;2023-08-08T13:38:07;8.90;;;4.70;;
51523;SDS011;37610;51.790;21.590;2023-08-08T13:42:15;5.40;;;3.90;;
51523;SDS011;37610;51.790;21.590;2023-08-08T13:46:17;14.50;;;2.60;;
51523;SDS011;37610;51.790;21.590;2023-08-08T13:50:18;4.10;;;3.60;;
51523;SDS011;37610;51.790;21.590;2023-08-08T13:54:20;4.10;;;2.00;;
51523;SDS011;37610;51.790;21.590;2023-08-08T13:58:21;3.50;;;1.80;;
51523;SDS011;37610;51.790;21.590;2023-08-08T14:02:23;6.10;;;4.50;;
51523;SDS011;37610;51.790;21.590;2023-08-08T14:06:25;21.80;;;2.90;;
51523;SDS011;37610;51.790;21.590;2023-08-08T14:10:27;2.00;;;1.70;;
51523;SDS011;37610;51.790;21.590;2023-08-08T14:14:28;3.70;;;3.40;;
51523;SDS011;37610;51.790;21.590;2023-08-08T14:22:33;1.50;;;0.60;;
51523;SDS011;37610;51.790;21.590;2023-08-08T14:26:36;3.10;;;0.70;;
51523;SDS011;37610;51.790;21.590;2023-08-08T14:30:37;2.00;;;0.80;;
51523;SDS011;37610;51.790;21.590;2023-08-08T14:34:39;5.40;;;1.00;;
51523;SDS011;37610;51.790;21.590;2023-08-08T14:38:40;4.70;;;1.10;;
51523;SDS011;37610;51.790;21.590;2023-08-08T14:42:42;2.80;;;1.60;;
51523;SDS011;37610;51.790;21.590;2023-08-08T14:46:43;7.40;;;2.90;;
51523;SDS011;37610;51.790;21.590;2023-08-08T14:50:45;3.60;;;2.10;;
51523;SDS011;37610;51.790;21.590;2023-08-08T14:58:48;4.00;;;3.50;;
51523;SDS011;37610;51.790;21.590;2023-08-08T15:02:49;10.90;;;1.10;;
51523;SDS011;37610;51.790;21.590;2023-08-08T15:06:51;2.30;;;0.80;;
51523;SDS011;37610;51.790;21.590;2023-08-08T15:10:52;2.30;;;0.70;;
51523;SDS011;37610;51.790;21.590;2023-08-08T15:14:54;4.20;;;1.10;;
51523;SDS011;37610;51.790;21.590;2023-08-08T15:18:56;3.80;;;0.90;;
51523;SDS011;37610;51.790;21.590;2023-08-08T15:22:57;2.60;;;0.80;;
51523;SDS011;37610;51.790;21.590;2023-08-08T15:26:59;1.40;;;0.90;;
51523;SDS011;37610;51.790;21.590;2023-08-08T15:31:00;2.20;;;0.60;;
51523;SDS011;37610;51.790;21.590;2023-08-08T15:35:02;1.60;;;0.50;;
51523;SDS011;37610;51.790;21.590;2023-08-08T15:39:04;1.70;;;0.80;;
51523;SDS011;37610;51.790;21.590;2023-08-08T15:43:06;1.60;;;0.70;;
51523;SDS011;37610;51.790;21.590;2023-08-08T15:47:08;2.20;;;0.50;;
51523;SDS011;37610;51.790;21.590;2023-08-08T15:51:09;2.00;;;0.70;;
51523;SDS011;37610;51.790;21.590;2023-08-08T15:55:11;1.60;;;0.70;;
51523;SDS011;37610;51.790;21.590;2023-08-08T15:59:12;1.80;;;0.80;;
51523;SDS011;37610;51.790;21.590;2023-08-08T16:03:14;10.10;;;0.90;;
51523;SDS011;37610;51.790;21.590;2023-08-08T16:07:16;2.10;;;0.60;;
51523;SDS011;37610;51.790;21.590;2023-08-08T16:11:19;1.70;;;0.80;;
51523;SDS011;37610;51.790;21.590;2023-08-08T16:15:20;1.80;;;0.80;;
51523;SDS011;37610;51.790;21.590;2023-08-08T16:19:22;2.50;;;0.70;;
51523;SDS011;37610;51.790;21.590;2023-08-08T16:23:24;2.00;;;0.70;;
51523;SDS011;37610;51.790;21.590;2023-08-08T16:27:26;6.20;;;1.00;;
51523;SDS011;37610;51.790;21.590;2023-08-08T16:31:27;3.20;;;1.50;;
51523;SDS011;37610;51.790;21.590;2023-08-08T16:35:29;3.30;;;1.20;;
51523;SDS011;37610;51.790;21.590;2023-08-08T16:39:30;7.30;;;1.40;;
51523;SDS011;37610;51.790;21.590;2023-08-08T16:43:36;9.10;;;2.90;;
51523;SDS011;37610;51.790;21.590;2023-08-08T16:47:38;4.60;;;3.20;;
51523;SDS011;37610;51.790;21.590;2023-08-08T16:55:42;2.80;;;1.50;;
51523;SDS011;37610;51.790;21.590;2023-08-08T16:59:43;3.50;;;3.20;;
51523;SDS011;37610;51.790;21.590;2023-08-08T17:03:45;5.40;;;4.20;;
51523;SDS011;37610;51.790;21.590;2023-08-08T17:07:46;4.60;;;4.20;;
51523;SDS011;37610;51.790;21.590;2023-08-08T17:11:48;3.30;;;1.60;;
51523;SDS011;37610;51.790;21.590;2023-08-08T17:15:50;2.80;;;1.20;;
51523;SDS011;37610;51.790;21.590;2023-08-08T17:19:51;5.10;;;1.60;;
51523;SDS011;37610;51.790;21.590;2023-08-08T17:23:53;6.40;;;1.70;;
51523;SDS011;37610;51.790;21.590;2023-08-08T17:27:54;6.20;;;1.70;;
51523;SDS011;37610;51.790;21.590;2023-08-08T17:31:56;6.30;;;1.80;;
51523;SDS011;37610;51.790;21.590;2023-08-08T17:35:58;3.80;;;1.60;;
51523;SDS011;37610;51.790;21.590;2023-08-08T17:39:59;6.10;;;1.70;;
51523;SDS011;37610;51.790;21.590;2023-08-08T17:44:01;3.50;;;1.50;;
51523;SDS011;37610;51.790;21.590;2023-08-08T17:48:03;4.10;;;1.70;;
51523;SDS011;37610;51.790;21.590;2023-08-08T17:52:05;3.50;;;1.60;;
51523;SDS011;37610;51.790;21.590;2023-08-08T17:56:07;3.40;;;1.80;;
51523;SDS011;37610;51.790;21.590;2023-08-08T18:00:09;5.20;;;2.10;;
51523;SDS011;37610;51.790;21.590;2023-08-08T18:04:11;6.20;;;3.20;;
51523;SDS011;37610;51.790;21.590;2023-08-08T18:08:13;6.80;;;2.80;;
51523;SDS011;37610;51.790;21.590;2023-08-08T18:12:15;4.80;;;3.40;;
51523;SDS011;37610;51.790;21.590;2023-08-08T18:16:17;4.90;;;2.40;;
51523;SDS011;37610;51.790;21.590;2023-08-08T18:20:18;9.70;;;3.50;;
51523;SDS011;37610;51.790;21.590;2023-08-08T18:24:20;3.20;;;2.90;;
51523;SDS011;37610;51.790;21.590;2023-08-08T18:28:22;11.10;;;3.50;;
51523;SDS011;37610;51.790;21.590;2023-08-08T18:32:23;4.40;;;3.40;;
51523;SDS011;37610;51.790;21.590;2023-08-08T18:36:26;13.50;;;5.20;;
51523;SDS011;37610;51.790;21.590;2023-08-08T18:40:28;20.70;;;14.90;;
51523;SDS011;37610;51.790;21.590;2023-08-08T18:44:29;21.50;;;15.70;;
51523;SDS011;37610;51.790;21.590;2023-08-08T18:48:31;17.20;;;14.10;;
51523;SDS011;37610;51.790;21.590;2023-08-08T18:52:33;10.60;;;7.90;;
51523;SDS011;37610;51.790;21.590;2023-08-08T18:56:35;14.00;;;7.20;;
51523;SDS011;37610;51.790;21.590;2023-08-08T19:00:37;12.30;;;5.40;;
51523;SDS011;37610;51.790;21.590;2023-08-08T19:04:39;7.20;;;4.00;;
51523;SDS011;37610;51.790;21.590;2023-08-08T19:08:41;8.10;;;3.50;;
51523;SDS011;37610;51.790;21.590;2023-08-08T19:12:44;8.90;;;3.00;;
51523;SDS011;37610;51.790;21.590;2023-08-08T19:16:45;7.20;;;4.20;;
51523;SDS011;37610;51.790;21.590;2023-08-08T19:20:47;6.10;;;2.80;;
51523;SDS011;37610;51.790;21.590;2023-08-08T19:24:49;9.50;;;2.80;;
51523;SDS011;37610;51.790;21.590;2023-08-08T19:28:53;6.90;;;3.20;;
51523;SDS011;37610;51.790;21.590;2023-08-08T19:37:06;8.40;;;3.00;;
51523;SDS011;37610;51.790;21.590;2023-08-08T19:41:08;5.20;;;3.20;;
51523;SDS011;37610;51.790;21.590;2023-08-08T19:45:12;5.00;;;3.20;;
51523;SDS011;37610;51.790;21.590;2023-08-08T19:49:14;4.80;;;2.80;;
51523;SDS011;37610;51.790;21.590;2023-08-08T19:53:15;5.80;;;3.60;;
51523;SDS011;37610;51.790;21.590;2023-08-08T19:57:18;9.20;;;3.90;;
51523;SDS011;37610;51.790;21.590;2023-08-08T20:01:19;6.80;;;3.10;;
51523;SDS011;37610;51.790;21.590;2023-08-08T20:05:22;9.10;;;5.00;;
51523;SDS011;37610;51.790;21.590;2023-08-08T20:09:25;6.00;;;4.80;;
51523;SDS011;37610;51.790;21.590;2023-08-08T20:13:27;6.20;;;3.90;;
51523;SDS011;37610;51.790;21.590;2023-08-08T20:17:29;6.50;;;4.50;;
51523;SDS011;37610;51.790;21.590;2023-08-08T20:21:31;5.30;;;3.30;;
51523;SDS011;37610;51.790;21.590;2023-08-08T20:25:33;10.30;;;3.10;;
51523;SDS011;37610;51.790;21.590;2023-08-08T20:29:39;4.10;;;2.50;;
51523;SDS011;37610;51.790;21.590;2023-08-08T20:33:40;7.50;;;3.40;;
51523;SDS011;37610;51.790;21.590;2023-08-08T20:37:46;4.10;;;2.50;;
51523;SDS011;37610;51.790;21.590;2023-08-08T20:41:47;5.20;;;3.00;;
51523;SDS011;37610;51.790;21.590;2023-08-08T20:45:49;9.20;;;3.40;;
51523;SDS011;37610;51.790;21.590;2023-08-08T20:49:51;12.30;;;3.90;;
51523;SDS011;37610;51.790;21.590;2023-08-08T20:53:52;4.30;;;3.20;;
51523;SDS011;37610;51.790;21.590;2023-08-08T20:57:54;7.00;;;3.80;;
51523;SDS011;37610;51.790;21.590;2023-08-08T21:01:55;5.40;;;3.20;;
51523;SDS011;37610;51.790;21.590;2023-08-08T21:05:57;7.00;;;4.20;;
51523;SDS011;37610;51.790;21.590;2023-08-08T21:09:58;7.90;;;4.70;;
51523;SDS011;37610;51.790;21.590;2023-08-08T21:14:00;6.30;;;4.90;;
51523;SDS011;37610;51.790;21.590;2023-08-08T21:18:02;7.80;;;5.20;;
51523;SDS011;37610;51.790;21.590;2023-08-08T21:22:04;6.40;;;4.00;;
51523;SDS011;37610;51.790;21.590;2023-08-08T21:26:05;5.20;;;3.50;;
51523;SDS011;37610;51.790;21.590;2023-08-08T21:30:07;6.30;;;4.40;;
51523;SDS011;37610;51.790;21.590;2023-08-08T21:34:09;6.30;;;4.40;;
51523;SDS011;37610;51.790;21.590;2023-08-08T21:38:13;6.90;;;4.80;;
51523;SDS011;37610;51.790;21.590;2023-08-08T21:42:14;6.60;;;4.50;;
51523;SDS011;37610;51.790;21.590;2023-08-08T21:46:18;5.60;;;4.10;;
51523;SDS011;37610;51.790;21.590;2023-08-08T21:50:20;5.00;;;3.80;;
51523;SDS011;37610;51.790;21.590;2023-08-08T21:54:22;5.50;;;3.50;;
51523;SDS011;37610;51.790;21.590;2023-08-08T21:58:23;8.10;;;4.10;;
51523;SDS011;37610;51.790;21.590;2023-08-08T22:02:25;4.40;;;3.40;;
51523;SDS011;37610;51.790;21.590;2023-08-08T22:06:26;6.60;;;3.80;;
51523;SDS011;37610;51.790;21.590;2023-08-08T22:10:28;6.50;;;4.90;;
51523;SDS011;37610;51.790;21.590;2023-08-08T22:14:34;6.90;;;3.90;;
51523;SDS011;37610;51.790;21.590;2023-08-08T22:18:36;10.00;;;4.20;;
51523;SDS011;37610;51.790;21.590;2023-08-08T22:22:37;6.20;;;3.10;;
51523;SDS011;37610;51.790;21.590;2023-08-08T22:26:39;6.60;;;2.70;;
51523;SDS011;37610;51.790;21.590;2023-08-08T22:30:41;6.00;;;4.20;;
51523;SDS011;37610;51.790;21.590;2023-08-08T22:34:42;6.70;;;4.90;;
51523;SDS011;37610;51.790;21.590;2023-08-08T22:38:44;4.80;;;3.90;;
51523;SDS011;37610;51.790;21.590;2023-08-08T22:42:45;6.50;;;4.00;;
51523;SDS011;37610;51.790;21.590;2023-08-08T22:46:48;4.60;;;3.70;;
51523;SDS011;37610;51.790;21.590;2023-08-08T22:50:49;5.90;;;4.50;;
51523;SDS011;37610;51.790;21.590;2023-08-08T22:54:52;5.10;;;4.60;;
51523;SDS011;37610;51.790;21.590;2023-08-08T22:58:54;4.70;;;3.70;;
51523;SDS011;37610;51.790;21.590;2023-08-08T23:02:56;4.70;;;3.60;;
51523;SDS011;37610;51.790;21.590;2023-08-08T23:06:57;5.20;;;3.50;;
51523;SDS011;37610;51.790;21.590;2023-08-08T23:10:59;6.30;;;3.80;;
51523;SDS011;37610;51.790;21.590;2023-08-08T23:15:01;6.40;;;3.80;;
51523;SDS011;37610;51.790;21.590;2023-08-08T23:19:03;5.30;;;3.50;;
51523;SDS011;37610;51.790;21.590;2023-08-08T23:23:04;4.50;;;3.80;;
51523;SDS011;37610;51.790;21.590;2023-08-08T23:27:07;5.80;;;3.60;;
51523;SDS011;37610;51.790;21.590;2023-08-08T23:31:08;4.70;;;3.60;;
51523;SDS011;37610;51.790;21.590;2023-08-08T23:35:10;6.00;;;3.30;;
51523;SDS011;37610;51.790;21.590;2023-08-08T23:39:11;5.70;;;3.20;;
51523;SDS011;37610;51.790;21.590;2023-08-08T23:43:13;4.80;;;3.60;;
51523;SDS011;37610;51.790;21.590;2023-08-08T23:47:15;5.30;;;3.70;;
51523;SDS011;37610;51.790;21.590;2023-08-08T23:51:16;4.30;;;3.80;;
51523;SDS011;37610;51.790;21.590;2023-08-08T23:55:18;3.80;;;2.30;;
51523;SDS011;37610;51.790;21.590;2023-08-08T23:59:20;4.30;;;2.50;;
